Time;durP1;ratioP1;P1;durP2;ratioP2;P2;SDS_P1;SDS_P2;PMS_P1;PMS_P2;Temp;Humidity;BMP_temperature;BMP_pressure;BME280_temperature;BME280_humidity;BME280_pressure;Samples;Min_cycle;Max_cycle;Signal;HPM_P1;HPM_P2
2021/03/23 00:01:34;;;;;;;;;;;;;;;19.90;34.18;100305.22;5140191;27;734;-48
2021/03/23 00:03:59;;;;;;;;;;;;;;;19.95;34.38;100307.88;5140388;27;774;-51
2021/03/23 00:06:25;;;;;;;;;;;;;;;19.21;35.74;100300.44;5138948;27;839;-51
2021/03/23 00:08:52;;;;;;;;;;;;;;;19.66;34.80;100297.94;5139983;27;823;-53
2021/03/23 00:11:22;;;;;;;;;;;;;;;20.40;33.37;100302.50;5101944;28;1983;-48
2021/03/23 00:13:48;;;;;;;;;;;;;;;20.04;33.85;100303.25;5118315;28;763;-52
2021/03/23 00:16:13;;;;;;;;;;;;;;;19.94;34.32;100296.03;5119050;28;958;-56
2021/03/23 00:18:39;;;;;;;;;;;;;;;19.48;35.34;100299.66;5118777;28;811;-55
2021/03/23 00:21:05;;;;;;;;;;;;;;;19.36;35.39;100302.91;5119263;28;830;-55
2021/03/23 00:23:30;;;;;;;;;;;;;;;20.26;33.57;100301.69;5117477;28;747;-56
2021/03/23 00:25:56;;;;;;;;;;;;;;;20.32;33.50;100309.56;5119803;28;781;-55
2021/03/23 00:28:23;;;;;;;;;;;;;;;19.95;34.47;100305.09;5118977;28;823;-55
2021/03/23 00:30:49;;;;;;;;;;;;;;;19.77;34.61;100310.41;5118849;28;1914;-55
2021/03/23 00:33:14;;;;;;;;;;;;;;;19.37;35.44;100320.28;5119278;28;798;-54
2021/03/23 00:35:40;;;;;;;;;;;;;;;20.16;33.76;100331.16;5119015;28;847;-52
2021/03/23 00:38:05;;;;;;;;;;;;;;;20.79;32.74;100314.88;5118831;28;735;-54
2021/03/23 00:40:31;;;;;;;;;;;;;;;21.00;32.21;100319.91;5119201;28;830;-51
2021/03/23 00:42:56;;;;;;;;;;;;;;;20.37;33.41;100305.88;5117687;28;819;-55
2021/03/23 00:45:22;;;;;;;;;;;;;;;20.03;34.12;100309.91;5117591;28;958;-56
2021/03/23 00:47:47;;;;;;;;;;;;;;;19.64;35.13;100308.44;5118891;28;807;-56
2021/03/23 00:50:13;;;;;;;;;;;;;;;19.36;35.67;100296.59;5118824;28;1917;-52
2021/03/23 00:52:39;;;;;;;;;;;;;;;20.27;33.75;100297.81;5118651;28;878;-54
2021/03/23 00:55:05;;;;;;;;;;;;;;;20.22;33.90;100292.41;5119214;28;819;-54
2021/03/23 00:57:30;;;;;;;;;;;;;;;20.11;34.02;100300.09;5118783;28;712;-53
2021/03/23 00:59:55;;;;;;;;;;;;;;;19.65;35.01;100304.56;5118289;28;965;-54
2021/03/23 01:02:21;;;;;;;;;;;;;;;19.42;35.53;100304.47;5118599;28;739;-54
2021/03/23 01:04:47;;;;;;;;;;;;;;;19.26;35.84;100311.38;5118635;28;873;-54
2021/03/23 01:07:12;;;;;;;;;;;;;;;20.10;34.29;100293.75;5118212;28;831;-52
2021/03/23 01:09:37;;;;;;;;;;;;;;;20.27;33.96;100298.63;5118430;28;1909;-51
2021/03/23 01:12:03;;;;;;;;;;;;;;;19.97;34.26;100294.59;5118422;28;775;-52
2021/03/23 01:14:29;;;;;;;;;;;;;;;19.72;34.67;100284.88;5121590;27;1009;-51
2021/03/23 01:16:54;;;;;;;;;;;;;;;19.33;35.89;100292.50;5137210;27;847;-54
2021/03/23 01:19:19;;;;;;;;;;;;;;;20.19;33.89;100291.09;5138798;27;818;-54
2021/03/23 01:21:45;;;;;;;;;;;;;;;20.32;33.77;100287.47;5138635;27;819;-52
2021/03/23 01:24:10;;;;;;;;;;;;;;;19.93;34.35;100302.66;5138697;27;767;-55
2021/03/23 01:26:36;;;;;;;;;;;;;;;19.73;34.76;100290.06;5138704;27;862;-55
2021/03/23 01:29:01;;;;;;;;;;;;;;;19.22;35.71;100297.38;5138191;27;1024;-54
2021/03/23 01:31:27;;;;;;;;;;;;;;;19.81;34.60;100303.19;5138673;27;1913;-54
2021/03/23 01:33:52;;;;;;;;;;;;;;;20.54;33.28;100302.44;5138065;27;779;-55
2021/03/23 01:36:17;;;;;;;;;;;;;;;20.17;33.95;100315.41;5137993;27;814;-55
2021/03/23 01:38:43;;;;;;;;;;;;;;;20.05;34.13;100307.66;5138345;27;850;-54
2021/03/23 01:41:08;;;;;;;;;;;;;;;19.43;35.46;100319.91;5138602;27;893;-49
2021/03/23 01:43:34;;;;;;;;;;;;;;;19.38;35.66;100322.72;5137037;27;931;-48
2021/03/23 01:46:00;;;;;;;;;;;;;;;20.31;33.97;100315.38;5138077;27;964;-53
2021/03/23 01:48:32;;;;;;;;;;;;;;;20.41;33.35;100315.19;5138286;27;799;-53
2021/03/23 01:51:01;;;;;;;;;;;;;;;20.09;34.21;100308.69;5136717;27;1984;-55
2021/03/23 01:53:34;;;;;;;;;;;;;;;19.78;34.87;100301.03;5138216;27;887;-52
2021/03/23 01:55:59;;;;;;;;;;;;;;;19.34;35.58;100307.13;5137069;27;759;-53
2021/03/23 01:58:25;;;;;;;;;;;;;;;19.83;34.66;100295.41;5137684;27;862;-50
2021/03/23 02:00:50;;;;;;;;;;;;;;;20.60;33.08;100292.91;5137922;27;976;-49
2021/03/23 02:03:16;;;;;;;;;;;;;;;20.12;34.04;100294.25;5138357;27;748;-55
2021/03/23 02:05:42;;;;;;;;;;;;;;;19.94;34.38;100296.03;5136524;27;774;-54
2021/03/23 02:08:08;;;;;;;;;;;;;;;19.48;35.30;100294.97;5137845;27;782;-49
2021/03/23 02:10:34;;;;;;;;;;;;;;;19.58;35.15;100282.09;5122541;27;1902;-48
2021/03/23 02:12:59;;;;;;;;;;;;;;;20.45;33.66;100285.78;5116019;28;752;-52
2021/03/23 02:15:25;;;;;;;;;;;;;;;20.16;33.91;100275.94;5115852;28;950;-53
2021/03/23 02:18:07;;;;;;;;;;;;;;;19.98;34.43;100274.16;5116239;28;735;-48
2021/03/23 02:20:33;;;;;;;;;;;;;;;19.46;35.13;100274.31;5116727;28;783;-48
2021/03/23 02:23:05;;;;;;;;;;;;;;;19.57;35.22;100253.72;5116092;28;1382;-50
2021/03/23 02:25:31;;;;;;;;;;;;;;;20.32;33.73;100268.13;5117223;28;747;-49
2021/03/23 02:27:56;;;;;;;;;;;;;;;20.35;33.76;100269.47;5116565;28;839;-50
2021/03/23 02:30:22;;;;;;;;;;;;;;;19.98;34.20;100280.47;5116760;28;1972;-48
2021/03/23 02:32:47;;;;;;;;;;;;;;;19.70;34.74;100285.19;5116089;28;1121;-48
2021/03/23 02:35:13;;;;;;;;;;;;;;;19.33;35.87;100281.47;5114980;28;897;-48
2021/03/23 02:37:38;;;;;;;;;;;;;;;20.25;33.77;100278.78;5116988;28;751;-48
2021/03/23 02:40:04;;;;;;;;;;;;;;;20.58;33.31;100280.53;5117360;28;786;-48
2021/03/23 02:42:30;;;;;;;;;;;;;;;20.11;33.92;100280.78;5114988;28;783;-48
2021/03/23 02:44:55;;;;;;;;;;;;;;;19.94;34.43;100275.91;5116672;28;973;-48
2021/03/23 02:47:20;;;;;;;;;;;;;;;19.35;35.34;100278.41;5116898;28;803;-49
2021/03/23 02:49:46;;;;;;;;;;;;;;;20.05;34.08;100277.31;5116143;28;1942;-48
2021/03/23 02:52:12;;;;;;;;;;;;;;;20.77;32.89;100283.94;5115981;28;743;-48
2021/03/23 02:54:37;;;;;;;;;;;;;;;20.12;33.81;100274.94;5117153;28;755;-48
2021/03/23 02:57:03;;;;;;;;;;;;;;;19.93;34.30;100263.22;5116420;28;779;-48
2021/03/23 02:59:28;;;;;;;;;;;;;;;19.40;35.50;100257.06;5115626;28;1147;-47
2021/03/23 03:01:54;;;;;;;;;;;;;;;19.58;35.06;100260.84;5117062;28;751;-47
2021/03/23 03:04:19;;;;;;;;;;;;;;;20.38;33.84;100263.31;5116122;28;736;-50
2021/03/23 03:06:45;;;;;;;;;;;;;;;20.36;33.38;100276.63;5116667;28;815;-53
2021/03/23 03:09:10;;;;;;;;;;;;;;;19.99;34.20;100282.13;5116659;28;1205;-51
2021/03/23 03:11:35;;;;;;;;;;;;;;;19.71;34.59;100278.50;5115323;28;1913;-57
2021/03/23 03:14:01;;;;;;;;;;;;;;;19.45;35.55;100281.78;5115900;28;985;-50
2021/03/23 03:16:26;;;;;;;;;;;;;;;20.27;33.92;100275.72;5137015;28;794;-57
2021/03/23 03:18:52;;;;;;;;;;;;;;;20.44;33.28;100283.34;5118222;28;851;-53
2021/03/23 03:21:17;;;;;;;;;;;;;;;19.99;34.20;100289.56;5136854;28;857;-55
2021/03/23 03:23:43;;;;;;;;;;;;;;;19.71;34.64;100285.97;5137143;28;839;-52
2021/03/23 03:26:08;;;;;;;;;;;;;;;19.52;35.26;100289.66;5137060;28;791;-50
2021/03/23 03:28:34;;;;;;;;;;;;;;;20.28;33.87;100296.69;5136750;28;767;-53
2021/03/23 03:30:59;;;;;;;;;;;;;;;20.52;33.09;100294.47;5136580;28;1913;-52
2021/03/23 03:33:25;;;;;;;;;;;;;;;20.14;33.85;100292.00;5136918;28;783;-51
2021/03/23 03:35:50;;;;;;;;;;;;;;;19.82;34.39;100296.56;5136756;28;818;-50
2021/03/23 03:38:16;;;;;;;;;;;;;;;19.55;35.02;100307.53;5135281;28;840;-50
2021/03/23 03:40:52;;;;;;;;;;;;;;;20.23;33.92;100292.09;5136726;28;779;-50
2021/03/23 03:43:18;;;;;;;;;;;;;;;20.55;32.99;100297.72;5136581;28;767;-49
2021/03/23 03:45:43;;;;;;;;;;;;;;;20.02;33.91;100307.47;5136462;28;956;-49
2021/03/23 03:48:09;;;;;;;;;;;;;;;19.94;34.41;100311.78;5136651;28;815;-52
2021/03/23 03:50:35;;;;;;;;;;;;;;;19.32;35.65;100318.41;5136399;28;1970;-50
2021/03/23 03:53:00;;;;;;;;;;;;;;;19.85;34.72;100308.09;5136734;28;743;-50
2021/03/23 03:55:27;;;;;;;;;;;;;;;20.63;33.22;100310.81;5136828;28;838;-51
2021/03/23 03:57:53;;;;;;;;;;;;;;;20.18;33.62;100328.09;5137947;27;743;-53
2021/03/23 04:00:19;;;;;;;;;;;;;;;19.92;34.28;100327.81;5140097;27;1012;-50
2021/03/23 04:02:44;;;;;;;;;;;;;;;19.27;35.50;100327.59;5140721;27;770;-53
2021/03/23 04:05:14;;;;;;;;;;;;;;;19.67;34.84;100338.22;5140159;27;807;-51
2021/03/23 04:07:40;;;;;;;;;;;;;;;20.52;33.24;100332.31;5138903;27;1101;-48
2021/03/23 04:10:05;;;;;;;;;;;;;;;20.34;33.42;100339.59;5130757;27;1984;-65
2021/03/23 04:12:31;;;;;;;;;;;;;;;19.96;34.25;100331.59;5119422;28;774;-49
2021/03/23 04:14:56;;;;;;;;;;;;;;;19.61;34.76;100344.91;5119062;28;945;-55
2021/03/23 04:17:22;;;;;;;;;;;;;;;19.77;34.75;100335.25;5118535;28;1133;-56
2021/03/23 04:19:47;;;;;;;;;;;;;;;20.55;33.43;100341.91;5117745;28;788;-52
2021/03/23 04:22:12;;;;;;;;;;;;;;;20.18;33.60;100348.22;5101077;28;1079;-50
2021/03/23 04:24:38;;;;;;;;;;;;;;;20.24;33.55;100348.94;5119750;28;736;-53
2021/03/23 04:27:03;;;;;;;;;;;;;;;19.66;34.67;100364.16;5118959;28;752;-55
2021/03/23 04:29:29;;;;;;;;;;;;;;;19.38;35.22;100355.00;5120783;27;838;-47
2021/03/23 04:31:54;;;;;;;;;;;;;;;20.15;34.13;100356.31;5128102;27;1909;-57
2021/03/23 04:34:20;;;;;;;;;;;;;;;20.76;32.80;100353.34;5118956;28;759;-58
2021/03/23 04:36:45;;;;;;;;;;;;;;;20.07;33.86;100363.38;5119405;28;838;-62
2021/03/23 04:39:12;;;;;;;;;;;;;;;20.02;34.12;100369.00;5119291;28;783;-57
2021/03/23 04:41:37;;;;;;;;;;;;;;;19.43;35.11;100394.34;5117623;28;794;-58
2021/03/23 04:44:03;;;;;;;;;;;;;;;20.06;34.24;100405.06;5118711;28;937;-57
2021/03/23 04:46:28;;;;;;;;;;;;;;;20.66;32.94;100404.09;5119275;28;774;-58
2021/03/23 04:48:54;;;;;;;;;;;;;;;20.12;33.74;100418.47;5117061;28;811;-59
2021/03/23 04:51:20;;;;;;;;;;;;;;;19.96;34.37;100431.75;5118423;28;1914;-57
2021/03/23 04:53:45;;;;;;;;;;;;;;;19.52;34.98;100430.31;5119242;28;905;-59
2021/03/23 04:56:18;;;;;;;;;;;;;;;19.41;35.23;100437.91;5118320;28;779;-63
2021/03/23 04:58:44;;;;;;;;;;;;;;;20.31;33.54;100456.19;5118780;28;806;-58
2021/03/23 05:01:09;;;;;;;;;;;;;;;20.39;33.35;100477.59;5117711;28;961;-61
2021/03/23 05:03:35;;;;;;;;;;;;;;;19.99;34.26;100488.28;5116782;28;890;-60
2021/03/23 05:06:05;;;;;;;;;;;;;;;19.82;34.53;100497.97;5118568;28;751;-63
2021/03/23 05:08:30;;;;;;;;;;;;;;;19.45;35.18;100491.34;5118653;28;790;-64
2021/03/23 05:10:55;;;;;;;;;;;;;;;20.21;33.72;100506.09;5117929;28;1909;-60
2021/03/23 05:13:21;;;;;;;;;;;;;;;20.41;33.17;100513.16;5118560;28;716;-59
2021/03/23 05:15:46;;;;;;;;;;;;;;;19.99;34.27;100526.91;5132621;27;986;-47
2021/03/23 05:18:12;;;;;;;;;;;;;;;19.66;34.55;100527.69;5138553;27;759;-49
2021/03/23 05:20:38;;;;;;;;;;;;;;;19.22;35.49;100536.38;5139006;27;778;-50
2021/03/23 05:23:03;;;;;;;;;;;;;;;19.95;34.44;100529.47;5137782;27;838;-56
2021/03/23 05:25:28;;;;;;;;;;;;;;;20.39;33.27;100527.28;5138296;27;715;-50
2021/03/23 05:27:54;;;;;;;;;;;;;;;19.90;34.21;100534.25;5139045;27;778;-50
2021/03/23 05:30:20;;;;;;;;;;;;;;;19.78;34.55;100540.19;5138522;27;1968;-56
2021/03/23 05:32:45;;;;;;;;;;;;;;;19.31;35.42;100542.84;5136991;27;798;-53
2021/03/23 05:35:11;;;;;;;;;;;;;;;19.74;34.62;100540.00;5138752;27;810;-64
2021/03/23 05:37:36;;;;;;;;;;;;;;;20.41;33.49;100536.09;5138409;27;834;-57
2021/03/23 05:40:02;;;;;;;;;;;;;;;19.89;34.43;100535.38;5137083;27;1372;-53
2021/03/23 05:42:30;;;;;;;;;;;;;;;19.91;34.27;100541.38;5137606;27;752;-54
2021/03/23 05:45:02;;;;;;;;;;;;;;;19.36;35.38;100544.72;5136937;27;977;-53
2021/03/23 05:47:30;;;;;;;;;;;;;;;19.51;35.24;100532.66;5137972;27;886;-51
2021/03/23 05:50:19;;;;;;;;;;;;;;;20.33;33.45;100539.56;5138718;27;1909;-49
2021/03/23 05:53:07;;;;;;;;;;;;;;;19.94;34.13;100533.34;5129871;27;1042;-48
2021/03/23 05:55:33;;;;;;;;;;;;;;;19.66;34.75;100529.66;5129493;27;976;-52
2021/03/23 05:57:58;;;;;;;;;;;;;;;19.34;35.09;100535.94;5138165;27;814;-52
2021/03/23 06:00:28;;;;;;;;;;;;;;;19.77;34.43;100533.88;5137194;27;969;-48
2021/03/23 06:02:55;;;;;;;;;;;;;;;20.43;33.12;100527.50;5118730;27;950;-55
2021/03/23 06:05:21;;;;;;;;;;;;;;;19.94;34.28;100540.81;5137165;27;839;-53
2021/03/23 06:07:48;;;;;;;;;;;;;;;19.67;34.73;100520.25;5138125;27;834;-49
2021/03/23 06:10:14;;;;;;;;;;;;;;;19.30;35.43;100535.69;5126483;27;1965;-51
2021/03/23 06:12:45;;;;;;;;;;;;;;;20.06;33.82;100521.00;5099462;28;1184;-52
2021/03/23 06:15:11;;;;;;;;;;;;;;;20.64;32.76;100517.69;5115944;28;946;-54
2021/03/23 06:17:39;;;;;;;;;;;;;;;20.11;33.59;100516.19;5115890;28;1330;-48
2021/03/23 06:20:08;;;;;;;;;;;;;;;19.95;34.01;100517.59;5098293;28;820;-49
2021/03/23 06:22:42;;;;;;;;;;;;;;;19.38;35.02;100501.94;5115909;28;764;-54
2021/03/23 06:25:17;;;;;;;;;;;;;;;19.58;34.93;100511.03;5116954;28;795;-50
2021/03/23 06:27:45;;;;;;;;;;;;;;;20.48;32.98;100511.66;5117676;28;894;-49
2021/03/23 06:30:29;;;;;;;;;;;;;;;20.05;33.83;100511.91;5116510;28;1917;-52
2021/03/23 06:32:55;;;;;;;;;;;;;;;19.93;33.97;100503.28;5116808;28;779;-48
2021/03/23 06:35:49;;;;;;;;;;;;;;;19.43;35.11;100503.78;5098714;28;827;-51
2021/03/23 06:38:31;;;;;;;;;;;;;;;19.82;34.05;100509.00;5098102;28;1047;-51
2021/03/23 06:41:14;;;;;;;;;;;;;;;20.48;33.20;100519.94;5115786;28;787;-55
2021/03/23 06:43:41;;;;;;;;;;;;;;;20.03;33.83;100518.84;5115587;28;800;-52
2021/03/23 06:46:16;;;;;;;;;;;;;;;19.92;34.19;100512.69;5116538;28;1029;-63
2021/03/23 06:48:42;;;;;;;;;;;;;;;19.36;35.21;100517.94;5116954;28;832;-53
2021/03/23 06:51:14;;;;;;;;;;;;;;;19.58;34.74;100516.53;5116447;28;1960;-56
2021/03/23 06:53:40;;;;;;;;;;;;;;;20.29;33.66;100522.78;5116630;28;811;-49
2021/03/23 06:56:18;;;;;;;;;;;;;;;20.97;32.15;100520.34;5116675;28;815;-66
2021/03/23 06:58:43;;;;;;;;;;;;;;;20.74;32.36;100516.69;5115477;28;823;-55
2021/03/23 07:01:12;;;;;;;;;;;;;;;20.33;33.17;100523.00;5116185;28;1020;-51
2021/03/23 07:03:37;;;;;;;;;;;;;;;19.88;34.16;100528.19;5116723;28;803;-51
2021/03/23 07:06:15;;;;;;;;;;;;;;;19.63;34.75;100533.00;5115209;28;760;-50
2021/03/23 07:08:40;;;;;;;;;;;;;;;19.19;35.65;100532.25;5116428;28;823;-48
2021/03/23 07:11:06;;;;;;;;;;;;;;;19.66;34.72;100543.44;5115290;28;1992;-58
2021/03/23 07:13:33;;;;;;;;;;;;;;;20.58;32.87;100551.22;5115241;28;958;-50
2021/03/23 07:16:10;;;;;;;;;;;;;;;20.12;33.72;100550.16;5134191;28;1012;-50
2021/03/23 07:18:45;;;;;;;;;;;;;;;19.97;34.12;100554.00;5136901;28;839;-47
2021/03/23 07:21:23;;;;;;;;;;;;;;;19.47;34.94;100551.72;5118417;28;784;-48
2021/03/23 07:24:02;;;;;;;;;;;;;;;19.45;34.93;100549.25;5137144;28;779;-49
2021/03/23 07:26:29;;;;;;;;;;;;;;;20.38;33.31;100553.25;5135610;28;830;-51
2021/03/23 07:29:12;;;;;;;;;;;;;;;20.17;33.33;100537.09;5137215;28;1031;-50
2021/03/23 07:31:42;;;;;;;;;;;;;;;20.06;33.57;100556.88;5135399;27;1989;-50
2021/03/23 07:34:11;;;;;;;;;;;;;;;19.74;34.21;100553.78;5122117;27;1101;-53
2021/03/23 07:36:45;;;;;;;;;;;;;;;19.14;35.42;100549.69;5139829;27;758;-64
2021/03/23 07:39:13;;;;;;;;;;;;;;;19.98;33.72;100534.38;5122213;27;771;-50
2021/03/23 07:41:46;;;;;;;;;;;;;;;20.58;32.69;100542.94;5140878;27;779;-51
2021/03/23 07:44:12;;;;;;;;;;;;;;;20.05;33.57;100528.47;5139701;27;937;-48
2021/03/23 07:46:54;;;;;;;;;;;;;;;19.97;33.97;100540.19;5140418;27;775;-53
2021/03/23 07:49:23;;;;;;;;;;;;;;;19.25;35.09;100533.00;5139062;27;1352;-49
2021/03/23 07:51:55;;;;;;;;;;;;;;;19.87;34.13;100532.09;5140686;27;1913;-53
2021/03/23 07:54:24;;;;;;;;;;;;;;;20.45;32.90;100530.78;5138953;27;755;-51
2021/03/23 07:56:56;;;;;;;;;;;;;;;20.01;33.97;100538.47;5139401;27;751;-51
2021/03/23 07:59:25;;;;;;;;;;;;;;;19.87;34.02;100537.63;5140280;27;1012;-50
2021/03/23 08:02:05;;;;;;;;;;;;;;;19.41;35.16;100537.19;5140322;27;746;-53
2021/03/23 08:04:33;;;;;;;;;;;;;;;19.86;34.31;100531.28;5139348;27;747;-57
2021/03/23 08:07:14;;;;;;;;;;;;;;;20.51;32.83;100519.31;5140342;27;974;-56
2021/03/23 08:09:45;;;;;;;;;;;;;;;20.00;33.99;100531.31;5133756;27;1176;-47
2021/03/23 08:12:14;;;;;;;;;;;;;;;19.92;34.00;100523.72;5119768;28;818;-47
2021/03/23 08:14:45;;;;;;;;;;;;;;;19.33;35.20;100535.09;5119809;28;997;-47
2021/03/23 08:17:23;;;;;;;;;;;;;;;19.13;35.36;100537.03;5119432;28;795;-46
2021/03/23 08:20:01;;;;;;;;;;;;;;;20.02;33.77;100523.56;5119903;28;823;-48
2021/03/23 08:22:43;;;;;;;;;;;;;;;20.49;32.79;100515.22;5119439;28;790;-46
2021/03/23 08:25:14;;;;;;;;;;;;;;;20.06;33.74;100507.19;5119787;28;871;-47
2021/03/23 08:27:42;;;;;;;;;;;;;;;19.82;34.21;100497.97;5118499;28;1005;-47
2021/03/23 08:30:26;;;;;;;;;;;;;;;19.12;35.56;100498.75;5118575;28;1967;-46
2021/03/23 08:33:10;;;;;;;;;;;;;;;20.04;33.59;100493.69;5118132;28;835;-61
2021/03/23 08:35:51;;;;;;;;;;;;;;;20.47;32.87;100496.19;5119464;28;807;-50
2021/03/23 08:38:35;;;;;;;;;;;;;;;20.09;33.66;100488.09;5118892;28;561;-49
2021/03/23 08:41:19;;;;;;;;;;;;;;;19.80;33.91;100472.59;5119294;28;747;-50
2021/03/23 08:43:45;;;;;;;;;;;;;;;19.29;35.28;100467.88;5118580;28;755;-50
2021/03/23 08:46:21;;;;;;;;;;;;;;;19.82;34.12;100470.38;5117129;28;970;-50
2021/03/23 08:48:48;;;;;;;;;;;;;;;20.58;32.87;100449.84;5117960;28;752;-51
2021/03/23 08:51:14;;;;;;;;;;;;;;;20.09;33.50;100457.75;5117436;28;1905;-53
2021/03/23 08:53:41;;;;;;;;;;;;;;;20.03;33.73;100469.97;5118683;28;846;-49
2021/03/23 08:56:08;;;;;;;;;;;;;;;19.56;34.41;100466.34;5118831;28;779;-49
2021/03/23 08:58:37;;;;;;;;;;;;;;;18.98;35.87;100469.19;5118733;28;886;-52
2021/03/23 09:01:03;;;;;;;;;;;;;;;20.00;33.87;100462.31;5118242;28;945;-52
2021/03/23 09:03:37;;;;;;;;;;;;;;;20.52;32.64;100449.16;5117539;28;882;-48
2021/03/23 09:06:03;;;;;;;;;;;;;;;19.93;33.93;100457.19;5118757;28;744;-48
2021/03/23 09:08:35;;;;;;;;;;;;;;;19.84;33.90;100461.78;5118476;28;767;-48
2021/03/23 09:11:02;;;;;;;;;;;;;;;19.34;34.81;100454.03;5118481;28;1906;-50
2021/03/23 09:13:34;;;;;;;;;;;;;;;19.57;34.54;100463.31;5118684;28;756;-53
2021/03/23 09:15:59;;;;;;;;;;;;;;;20.42;33.10;100465.91;5115894;28;817;-47
2021/03/23 09:18:27;;;;;;;;;;;;;;;20.41;32.84;100464.31;5117903;28;881;-50
2021/03/23 09:20:52;;;;;;;;;;;;;;;20.13;33.39;100460.69;5117041;28;945;-47
2021/03/23 09:23:18;;;;;;;;;;;;;;;19.83;33.79;100471.19;5118075;28;814;-46
2021/03/23 09:25:43;;;;;;;;;;;;;;;19.29;35.00;100468.72;5118159;28;802;-48
2021/03/23 09:28:09;;;;;;;;;;;;;;;19.75;34.38;100449.78;5118645;28;784;-47
2021/03/23 09:30:39;;;;;;;;;;;;;;;20.52;32.68;100465.72;5117799;28;1968;-56
2021/03/23 09:33:12;;;;;;;;;;;;;;;20.12;33.32;100465.41;5118426;28;824;-55
2021/03/23 09:35:38;;;;;;;;;;;;;;;19.96;33.65;100447.47;5118128;28;746;-51
2021/03/23 09:38:23;;;;;;;;;;;;;;;19.51;34.56;100467.28;5116746;28;763;-62
2021/03/23 09:40:55;;;;;;;;;;;;;;;19.58;34.47;100470.44;5117926;28;787;-53
2021/03/23 09:43:22;;;;;;;;;;;;;;;20.41;32.92;100472.59;5118332;28;819;-64
2021/03/23 09:45:48;;;;;;;;;;;;;;;20.43;33.10;100467.56;5117402;28;1013;-64
2021/03/23 09:48:13;;;;;;;;;;;;;;;20.22;33.21;100474.63;5117501;28;863;-65
2021/03/23 09:50:40;;;;;;;;;;;;;;;19.87;34.11;100477.72;5117556;28;1980;-65
2021/03/23 09:53:13;;;;;;;;;;;;;;;19.26;35.36;100472.06;5117483;28;735;-65
2021/03/23 09:55:40;;;;;;;;;;;;;;;19.80;34.11;100482.81;5116975;28;779;-60
2021/03/23 09:58:05;;;;;;;;;;;;;;;20.45;33.13;100475.53;5117617;28;876;-66
2021/03/23 10:00:31;;;;;;;;;;;;;;;20.03;33.85;100469.16;5117329;28;957;-49
2021/03/23 10:02:57;;;;;;;;;;;;;;;20.09;33.56;100454.13;5117408;28;739;-51
2021/03/23 10:05:24;;;;;;;;;;;;;;;19.54;34.82;100463.09;5117359;28;743;-49
2021/03/23 10:07:50;;;;;;;;;;;;;;;19.76;34.24;100449.47;5115416;28;910;-50
2021/03/23 10:10:19;;;;;;;;;;;;;;;20.39;33.17;100443.63;5115928;28;1975;-58
2021/03/23 10:12:44;;;;;;;;;;;;;;;20.09;33.51;100456.91;5117231;28;815;-56
2021/03/23 10:15:19;;;;;;;;;;;;;;;20.12;33.61;100454.34;5127506;27;965;-55
2021/03/23 10:17:44;;;;;;;;;;;;;;;19.53;34.77;100465.03;5132125;27;818;-53
2021/03/23 10:20:10;;;;;;;;;;;;;;;19.11;35.56;100453.84;5117128;28;732;-58
2021/03/23 10:22:38;;;;;;;;;;;;;;;19.94;34.15;100453.31;5117216;28;770;-58
2021/03/23 10:25:05;;;;;;;;;;;;;;;20.64;32.73;100445.84;5115894;28;736;-59
2021/03/23 10:27:34;;;;;;;;;;;;;;;20.17;33.53;100446.00;5116993;28;834;-46
2021/03/23 10:30:05;;;;;;;;;;;;;;;20.08;33.49;100447.81;5124471;27;1914;-46
2021/03/23 10:32:41;;;;;;;;;;;;;;;19.55;34.66;100449.00;5137400;27;885;-56
2021/03/23 10:35:12;;;;;;;;;;;;;;;19.74;34.30;100457.25;5136410;27;842;-55
2021/03/23 10:37:38;;;;;;;;;;;;;;;20.40;32.94;100454.38;5137444;27;740;-56
2021/03/23 10:40:04;;;;;;;;;;;;;;;20.77;32.16;100455.25;5137192;27;770;-55
2021/03/23 10:42:31;;;;;;;;;;;;;;;20.18;33.27;100455.88;5136615;27;751;-50
2021/03/23 10:45:08;;;;;;;;;;;;;;;20.09;33.66;100460.50;5135321;27;953;-50
2021/03/23 10:47:37;;;;;;;;;;;;;;;19.42;34.88;100458.88;5137438;27;743;-52
2021/03/23 10:50:17;;;;;;;;;;;;;;;19.80;34.00;100450.53;5137324;27;1906;-55
2021/03/23 10:52:43;;;;;;;;;;;;;;;20.69;32.59;100447.69;5136935;27;728;-54
2021/03/23 10:55:13;;;;;;;;;;;;;;;20.37;33.06;100454.16;5136060;28;803;-62
2021/03/23 10:57:39;;;;;;;;;;;;;;;20.16;33.28;100462.81;5137148;27;735;-49
2021/03/23 11:00:17;;;;;;;;;;;;;;;19.65;34.20;100459.03;5136693;28;952;-57
2021/03/23 11:02:42;;;;;;;;;;;;;;;19.18;35.49;100452.63;5137065;28;799;-49
2021/03/23 11:05:12;;;;;;;;;;;;;;;20.08;33.57;100445.06;5136389;28;1092;-52
2021/03/23 11:07:38;;;;;;;;;;;;;;;20.68;32.67;100446.09;5139416;27;779;-49
2021/03/23 11:10:05;;;;;;;;;;;;;;;20.20;33.23;100441.78;5132062;27;1962;-49
2021/03/23 11:12:30;;;;;;;;;;;;;;;20.18;33.51;100442.09;5120911;28;842;-56
2021/03/23 11:14:58;;;;;;;;;;;;;;;19.42;34.92;100441.47;5120161;28;1001;-52
2021/03/23 11:17:24;;;;;;;;;;;;;;;19.20;35.50;100447.66;5120906;28;748;-52
2021/03/23 11:19:53;;;;;;;;;;;;;;;20.09;33.61;100441.19;5120935;28;796;-54
2021/03/23 11:22:24;;;;;;;;;;;;;;;20.68;32.35;100441.38;5120563;28;755;-50
2021/03/23 11:24:49;;;;;;;;;;;;;;;20.12;33.52;100439.75;5119441;28;751;-58
2021/03/23 11:27:15;;;;;;;;;;;;;;;20.02;33.69;100426.13;5120524;28;790;-55
2021/03/23 11:29:40;;;;;;;;;;;;;;;19.46;34.55;100426.81;5119752;28;968;-50
2021/03/23 11:32:06;;;;;;;;;;;;;;;19.40;34.93;100429.97;5120429;28;1909;-56
2021/03/23 11:34:31;;;;;;;;;;;;;;;20.20;33.64;100421.63;5120403;28;831;-51
2021/03/23 11:36:57;;;;;;;;;;;;;;;20.49;32.69;100426.84;5119918;28;818;-50
2021/03/23 11:39:23;;;;;;;;;;;;;;;20.13;33.55;100425.63;5120347;28;798;-52
2021/03/23 11:42:01;;;;;;;;;;;;;;;19.93;33.84;100431.53;5120171;28;771;-48
2021/03/23 11:44:30;;;;;;;;;;;;;;;19.38;35.08;100424.75;5119605;28;930;-48
2021/03/23 11:47:05;;;;;;;;;;;;;;;19.82;34.10;100419.88;5118995;28;767;-51
2021/03/23 11:49:49;;;;;;;;;;;;;;;20.51;33.03;100428.16;5119756;28;1007;-58
2021/03/23 11:52:14;;;;;;;;;;;;;;;20.18;33.59;100428.28;5120054;28;1910;-48
2021/03/23 11:54:40;;;;;;;;;;;;;;;20.09;33.74;100429.28;5120570;28;743;-55
2021/03/23 11:57:05;;;;;;;;;;;;;;;19.60;34.44;100426.84;5118652;28;783;-51
2021/03/23 11:59:31;;;;;;;;;;;;;;;19.64;34.62;100419.63;5119762;28;950;-58
2021/03/23 12:01:56;;;;;;;;;;;;;;;20.31;33.13;100414.78;5101594;28;763;-50
2021/03/23 12:04:22;;;;;;;;;;;;;;;20.63;32.55;100427.63;5120073;28;771;-58
2021/03/23 12:07:06;;;;;;;;;;;;;;;20.11;33.66;100416.81;5118203;28;807;-50
2021/03/23 12:09:34;;;;;;;;;;;;;;;19.88;34.11;100404.03;5119570;28;1180;-48
2021/03/23 12:12:38;;;;;;;;;;;;;;;19.28;35.22;100427.69;5119337;28;1978;-47
2021/03/23 12:15:10;;;;;;;;;;;;;;;20.05;33.95;100415.31;5046866;28;1061;-50
2021/03/23 12:17:36;;;;;;;;;;;;;;;20.68;32.51;100422.03;5020490;28;1115;-51
2021/03/23 12:20:05;;;;;;;;;;;;;;;20.14;33.70;100421.72;5067277;28;1116;-48
2021/03/23 12:22:30;;;;;;;;;;;;;;;19.98;33.79;100423.19;5097875;28;799;-58
2021/03/23 12:24:56;;;;;;;;;;;;;;;19.43;34.99;100421.06;5098942;28;803;-53
2021/03/23 12:27:21;;;;;;;;;;;;;;;19.69;34.66;100418.69;5098725;28;732;-57
2021/03/23 12:29:47;;;;;;;;;;;;;;;20.39;32.99;100424.31;5105060;28;1013;-49
2021/03/23 12:32:15;;;;;;;;;;;;;;;20.59;32.58;100421.09;5119381;28;1906;-49
2021/03/23 12:34:41;;;;;;;;;;;;;;;20.20;33.52;100419.69;5118134;28;763;-47
2021/03/23 12:37:07;;;;;;;;;;;;;;;19.67;34.36;100413.50;5118940;28;759;-49
2021/03/23 12:39:32;;;;;;;;;;;;;;;19.25;35.33;100428.25;5119449;28;742;-47
2021/03/23 12:41:58;;;;;;;;;;;;;;;19.38;35.16;100416.47;5117133;28;1883;-48
2021/03/23 12:44:23;;;;;;;;;;;;;;;20.15;33.78;100417.06;5119163;28;946;-49
2021/03/23 12:46:49;;;;;;;;;;;;;;;20.41;33.04;100422.88;5119084;28;767;-49
2021/03/23 12:49:14;;;;;;;;;;;;;;;20.00;33.90;100418.97;5118528;28;1001;-54
2021/03/23 12:51:45;;;;;;;;;;;;;;;19.81;34.30;100419.06;5118714;28;1972;-54
2021/03/23 12:54:17;;;;;;;;;;;;;;;19.29;35.22;100415.50;5117760;28;779;-58
2021/03/23 12:56:43;;;;;;;;;;;;;;;19.60;34.84;100406.72;5117143;28;850;-48
2021/03/23 12:59:15;;;;;;;;;;;;;;;20.39;33.25;100411.31;5117611;28;1098;-49
2021/03/23 13:01:40;;;;;;;;;;;;;;;20.36;33.24;100417.44;5117562;28;771;-50